createdAt,value
2022-08-27T00:00:46.696Z,8.52
2022-08-27T00:03:13.947Z,7.68
2022-08-27T00:05:41.585Z,7.57
2022-08-27T00:08:11.015Z,7.85
2022-08-27T00:10:38.981Z,7.63
2022-08-27T00:13:05.931Z,7.95
2022-08-27T00:15:33.497Z,7.82
2022-08-27T00:18:00.495Z,8.02
2022-08-27T00:20:27.681Z,8.18
2022-08-27T00:22:54.930Z,8.18
2022-08-27T00:25:22.742Z,8.38
2022-08-27T00:27:49.612Z,8.20
2022-08-27T00:30:18.544Z,8.43
2022-08-27T00:32:45.542Z,8.55
2022-08-27T00:35:14.319Z,8.15
2022-08-27T00:40:10.684Z,8.68
2022-08-27T00:42:37.610Z,7.70
2022-08-27T00:45:06.521Z,8.38
2022-08-27T00:47:36.067Z,7.57
2022-08-27T00:50:07.352Z,7.43
2022-08-27T00:52:42.210Z,8.00
2022-08-27T00:55:15.759Z,7.65
2022-08-27T00:57:44.882Z,7.53
2022-08-27T01:00:18.021Z,7.15
2022-08-27T01:02:46.710Z,7.63
2022-08-27T01:05:17.695Z,7.15
2022-08-27T01:07:47.701Z,8.35
2022-08-27T01:10:17.325Z,7.90
2022-08-27T01:12:44.306Z,7.05
2022-08-27T01:15:21.318Z,8.20
2022-08-27T01:17:49.188Z,7.60
2022-08-27T01:20:20.870Z,8.80
2022-08-27T01:23:13.830Z,8.40
2022-08-27T01:25:44.495Z,8.35
2022-08-27T01:28:12.071Z,8.43
2022-08-27T01:30:40.303Z,8.30
2022-08-27T01:33:15.976Z,8.02
2022-08-27T01:35:45.298Z,8.98
2022-08-27T01:38:18.908Z,8.55
2022-08-27T01:40:57.517Z,8.85
2022-08-27T01:43:24.617Z,10.45
2022-08-27T01:45:52.668Z,8.90
2022-08-27T01:48:20.929Z,8.75
2022-08-27T01:50:48.422Z,8.70
2022-08-27T01:53:19.326Z,8.80
2022-08-27T01:55:48.247Z,8.60
2022-08-27T01:58:15.756Z,9.32
2022-08-27T02:00:44.460Z,8.43
2022-08-27T02:03:12.214Z,7.43
2022-08-27T02:05:44.620Z,8.90
2022-08-27T02:08:12.685Z,9.55
2022-08-27T02:10:40.410Z,8.93
2022-08-27T02:13:08.248Z,8.77
2022-08-27T02:15:36.852Z,9.05
2022-08-27T02:18:05.862Z,8.63
2022-08-27T02:20:32.691Z,9.40
2022-08-27T02:22:59.594Z,9.23
2022-08-27T02:25:28.993Z,10.40
2022-08-27T02:28:00.264Z,10.27
2022-08-27T02:30:28.427Z,8.85
2022-08-27T02:32:55.119Z,8.55
2022-08-27T02:35:23.790Z,9.23
2022-08-27T02:37:51.090Z,9.18
2022-08-27T02:40:20.458Z,9.90
2022-08-27T02:42:47.284Z,9.85
2022-08-27T02:45:15.873Z,8.40
2022-08-27T02:47:42.944Z,8.77
2022-08-27T02:50:10.888Z,9.38
2022-08-27T02:52:37.793Z,8.68
2022-08-27T02:55:06.139Z,8.85
2022-08-27T02:57:36.665Z,9.13
2022-08-27T03:00:16.162Z,9.43
2022-08-27T03:02:43.047Z,9.98
2022-08-27T03:05:11.743Z,9.02
2022-08-27T03:07:38.798Z,9.23
2022-08-27T03:10:06.808Z,8.23
2022-08-27T03:12:36.552Z,8.93
2022-08-27T03:15:11.518Z,10.23
2022-08-27T03:20:23.872Z,9.93
2022-08-27T03:22:50.813Z,9.75
2022-08-27T03:25:18.055Z,9.50
2022-08-27T03:27:44.953Z,10.10
2022-08-27T03:30:19.054Z,9.50
2022-08-27T03:32:46.573Z,9.15
2022-08-27T03:35:14.294Z,9.32
2022-08-27T03:37:41.097Z,9.48
2022-08-27T03:40:09.302Z,9.88
2022-08-27T03:42:37.008Z,9.38
2022-08-27T03:45:04.277Z,8.43
2022-08-27T03:47:32.498Z,9.77
2022-08-27T03:50:02.512Z,8.82
2022-08-27T03:52:29.779Z,12.73
2022-08-27T03:54:56.808Z,8.05
2022-08-27T03:57:23.667Z,10.15
2022-08-27T03:59:53.035Z,9.60
2022-08-27T04:02:21.428Z,9.32
2022-08-27T04:04:48.498Z,8.10
2022-08-27T04:07:15.477Z,9.93
2022-08-27T04:09:42.786Z,11.90
2022-08-27T04:12:12.609Z,10.82
2022-08-27T04:14:40.312Z,10.15
2022-08-27T04:17:10.490Z,10.38
2022-08-27T04:19:40.430Z,10.02
2022-08-27T04:22:14.357Z,11.10
2022-08-27T04:24:41.158Z,10.45
2022-08-27T04:27:07.933Z,9.52
2022-08-27T04:29:35.254Z,8.70
2022-08-27T04:32:03.073Z,9.60
2022-08-27T04:34:30.979Z,10.02
2022-08-27T04:36:58.586Z,9.63
2022-08-27T04:39:26.736Z,9.27
2022-08-27T04:41:56.245Z,10.40
2022-08-27T04:44:24.427Z,10.27
2022-08-27T04:46:59.370Z,9.50
2022-08-27T04:49:27.284Z,9.30
2022-08-27T04:51:54.290Z,8.85
2022-08-27T04:54:32.187Z,9.93
2022-08-27T04:57:00.258Z,9.95
2022-08-27T04:59:27.156Z,9.73
2022-08-27T05:01:54.071Z,10.95
2022-08-27T05:04:21.001Z,11.55
2022-08-27T05:06:49.425Z,10.68
2022-08-27T05:09:17.089Z,11.07
2022-08-27T05:11:47.170Z,12.52
2022-08-27T05:14:15.946Z,13.55
2022-08-27T05:19:14.123Z,19.15
2022-08-27T05:21:47.280Z,18.50
2022-08-27T05:24:15.656Z,16.80
2022-08-27T05:26:42.744Z,19.75
2022-08-27T05:29:09.904Z,15.07
2022-08-27T05:31:36.951Z,12.23
2022-08-27T05:34:10.448Z,12.32
2022-08-27T05:36:40.409Z,11.40
2022-08-27T05:39:16.274Z,11.02
2022-08-27T05:41:43.376Z,11.38
2022-08-27T05:46:57.593Z,11.43
2022-08-27T05:49:27.726Z,11.38
2022-08-27T05:51:54.705Z,12.80
2022-08-27T05:54:22.964Z,13.15
2022-08-27T05:56:50.307Z,12.02
2022-08-27T05:59:36.174Z,11.35
2022-08-27T06:02:08.140Z,12.40
2022-08-27T06:04:35.528Z,12.93
2022-08-27T06:07:02.744Z,13.40
2022-08-27T06:09:30.253Z,12.02
2022-08-27T06:11:58.827Z,12.90
2022-08-27T06:14:26.649Z,15.05
2022-08-27T06:16:53.700Z,14.60
2022-08-27T06:19:20.869Z,15.23
2022-08-27T06:22:00.647Z,14.95
2022-08-27T06:27:03.075Z,13.55
2022-08-27T06:29:30.136Z,14.73
2022-08-27T06:31:57.052Z,14.90
2022-08-27T06:34:23.862Z,17.30
2022-08-27T06:36:50.905Z,13.55
2022-08-27T06:39:17.798Z,13.07
2022-08-27T06:41:45.168Z,13.95
2022-08-27T06:44:13.337Z,13.73
2022-08-27T06:46:40.876Z,13.70
2022-08-27T06:49:07.848Z,12.95
2022-08-27T06:51:36.682Z,14.73
2022-08-27T06:54:06.449Z,14.20
2022-08-27T06:56:33.645Z,13.82
2022-08-27T06:59:03.750Z,12.75
2022-08-27T07:01:36.042Z,11.90
2022-08-27T07:04:05.952Z,10.93
2022-08-27T07:06:33.751Z,11.65
2022-08-27T07:09:00.759Z,10.38
2022-08-27T07:11:28.817Z,10.15
2022-08-27T07:13:56.422Z,11.02
2022-08-27T07:16:24.724Z,10.93
2022-08-27T07:18:57.252Z,10.38
2022-08-27T07:21:29.472Z,10.05
2022-08-27T07:23:59.440Z,10.50
2022-08-27T07:26:26.549Z,9.18
2022-08-27T07:28:53.560Z,8.88
2022-08-27T07:31:22.272Z,9.82
2022-08-27T07:33:51.450Z,9.55
2022-08-27T07:36:21.238Z,9.25
2022-08-27T07:39:00.876Z,8.98
2022-08-27T07:41:30.883Z,8.43
2022-08-27T07:44:19.909Z,7.95
2022-08-27T07:46:48.731Z,8.32
2022-08-27T07:49:18.745Z,9.02
2022-08-27T07:51:45.762Z,8.30
2022-08-27T07:54:12.507Z,8.95
2022-08-27T07:56:39.273Z,9.27
2022-08-27T07:59:06.006Z,9.43
2022-08-27T08:01:32.823Z,8.93
2022-08-27T08:03:59.827Z,9.60
2022-08-27T08:06:26.697Z,9.18
2022-08-27T08:08:53.449Z,9.27
2022-08-27T08:11:20.613Z,7.13
2022-08-27T08:13:47.906Z,8.90
2022-08-27T08:16:15.206Z,8.63
2022-08-27T08:18:42.025Z,8.15
2022-08-27T08:21:12.585Z,8.68
2022-08-27T08:23:41.067Z,8.25
2022-08-27T08:28:35.849Z,9.82
2022-08-27T08:31:02.946Z,7.78
2022-08-27T08:33:31.587Z,7.80
2022-08-27T08:36:11.567Z,8.20
2022-08-27T08:38:39.389Z,8.95
2022-08-27T08:41:08.089Z,7.40
2022-08-27T08:43:39.142Z,8.35
2022-08-27T08:46:15.066Z,8.60
2022-08-27T08:48:45.923Z,7.35
2022-08-27T08:51:18.240Z,9.05
2022-08-27T08:53:57.080Z,8.00
2022-08-27T08:56:29.144Z,7.78
2022-08-27T08:59:34.501Z,9.00
2022-08-27T09:02:01.942Z,8.70
2022-08-27T09:04:30.133Z,7.80
2022-08-27T09:07:04.437Z,7.97
2022-08-27T09:09:48.543Z,7.97
2022-08-27T09:12:25.005Z,9.88
2022-08-27T09:15:06.998Z,9.05
2022-08-27T09:17:40.298Z,8.57
2022-08-27T09:20:08.774Z,8.23
2022-08-27T09:23:19.579Z,8.75
2022-08-27T09:25:46.404Z,8.05
2022-08-27T09:28:40.419Z,8.57
2022-08-27T09:31:09.649Z,7.90
2022-08-27T09:33:46.075Z,7.28
2022-08-27T09:36:24.082Z,7.97
2022-08-27T09:38:58.167Z,7.60
2022-08-27T09:41:30.023Z,8.25
2022-08-27T09:44:01.776Z,8.52
2022-08-27T09:46:29.484Z,7.30
2022-08-27T09:48:56.428Z,7.60
2022-08-27T09:51:27.901Z,7.72
2022-08-27T09:53:57.678Z,6.95
2022-08-27T09:56:30.753Z,6.78
2022-08-27T09:59:10.388Z,7.68
2022-08-27T10:01:49.118Z,7.80
2022-08-27T10:04:17.659Z,7.53
2022-08-27T10:09:16.716Z,7.65
2022-08-27T10:12:02.136Z,7.10
2022-08-27T10:14:31.923Z,8.43
2022-08-27T10:17:20.706Z,7.72
2022-08-27T10:20:08.895Z,6.53
2022-08-27T10:23:10.662Z,7.80
2022-08-27T10:26:04.339Z,6.47
2022-08-27T10:28:39.019Z,6.45
2022-08-27T10:33:41.481Z,6.40
2022-08-27T10:36:53.028Z,6.35
2022-08-27T10:42:11.170Z,5.82
2022-08-27T10:44:55.317Z,6.85
2022-08-27T10:47:40.845Z,5.43
2022-08-27T10:50:13.613Z,5.65
2022-08-27T10:52:55.303Z,7.45
2022-08-27T10:55:26.952Z,6.47
2022-08-27T10:58:16.654Z,6.97
2022-08-27T11:00:50.923Z,6.97
2022-08-27T11:04:10.244Z,6.53
2022-08-27T11:06:44.531Z,6.60
2022-08-27T11:09:29.895Z,6.38
2022-08-27T11:12:15.463Z,6.00
2022-08-27T11:14:59.135Z,7.15
2022-08-27T11:17:46.329Z,7.25
2022-08-27T11:20:19.550Z,6.05
2022-08-27T11:23:08.753Z,7.88
2022-08-27T11:25:59.099Z,7.35
2022-08-27T11:28:39.861Z,7.32
2022-08-27T11:31:06.546Z,6.53
2022-08-27T11:34:04.276Z,6.72
2022-08-27T11:36:54.055Z,7.35
2022-08-27T11:39:52.353Z,7.22
2022-08-27T11:42:25.607Z,6.68
2022-08-27T11:44:57.858Z,6.75
2022-08-27T11:47:26.230Z,6.05
2022-08-27T11:49:55.936Z,8.18
2022-08-27T11:52:29.387Z,8.00
2022-08-27T11:55:10.808Z,6.70
2022-08-27T11:57:38.468Z,6.75
2022-08-27T12:00:15.489Z,6.78
2022-08-27T12:02:42.384Z,7.70
2022-08-27T12:05:40.221Z,6.20
2022-08-27T12:08:20.099Z,8.38
2022-08-27T12:11:15.045Z,8.38
2022-08-27T12:14:08.633Z,10.27
2022-08-27T12:16:53.578Z,8.25
2022-08-27T12:19:32.386Z,8.02
2022-08-27T12:22:08.176Z,7.47
2022-08-27T12:24:50.073Z,7.82
2022-08-27T12:27:34.700Z,7.40
2022-08-27T12:30:01.564Z,7.50
2022-08-27T12:32:38.292Z,7.05
2022-08-27T12:35:15.170Z,7.40
2022-08-27T12:37:47.282Z,7.10
2022-08-27T12:40:24.796Z,7.78
2022-08-27T12:43:03.774Z,8.55
2022-08-27T12:45:31.033Z,7.45
2022-08-27T12:47:58.325Z,7.38
2022-08-27T12:50:28.146Z,7.35
2022-08-27T12:53:18.063Z,7.60
2022-08-27T12:56:23.534Z,7.50
2022-08-27T12:58:59.789Z,8.05
2022-08-27T13:01:44.378Z,8.93
2022-08-27T13:04:28.900Z,6.95
2022-08-27T13:06:56.249Z,6.80
2022-08-27T13:09:32.230Z,7.55
2022-08-27T13:12:00.169Z,7.88
2022-08-27T13:14:28.951Z,7.90
2022-08-27T13:17:05.341Z,7.97
2022-08-27T13:19:34.538Z,7.70
2022-08-27T13:22:03.648Z,6.50
2022-08-27T13:24:33.672Z,8.05
2022-08-27T13:27:02.840Z,7.32
2022-08-27T13:29:29.701Z,7.18
2022-08-27T13:31:56.913Z,7.93
2022-08-27T13:34:25.782Z,8.52
2022-08-27T13:37:06.214Z,7.65
2022-08-27T13:39:39.035Z,7.45
2022-08-27T13:42:07.644Z,7.88
2022-08-27T13:47:08.327Z,6.97
2022-08-27T13:49:39.979Z,7.32
2022-08-27T13:52:17.240Z,7.50
2022-08-27T13:55:07.789Z,10.70
2022-08-27T13:57:45.460Z,7.32
2022-08-27T14:00:19.774Z,7.30
2022-08-27T14:02:56.184Z,6.53
2022-08-27T14:05:23.259Z,7.57
2022-08-27T14:07:53.529Z,7.38
2022-08-27T14:10:32.622Z,7.22
2022-08-27T14:13:04.484Z,8.27
2022-08-27T14:15:41.149Z,7.40
2022-08-27T14:18:36.772Z,6.88
2022-08-27T14:21:09.903Z,8.48
2022-08-27T14:23:36.689Z,7.75
2022-08-27T14:26:03.459Z,7.68
2022-08-27T14:28:31.718Z,7.45
2022-08-27T14:30:58.640Z,7.45
2022-08-27T14:33:25.556Z,7.10
2022-08-27T14:35:52.354Z,6.53
2022-08-27T14:38:22.153Z,7.53
2022-08-27T14:40:51.966Z,7.18
2022-08-27T14:43:18.914Z,7.70
2022-08-27T14:45:47.225Z,7.00
2022-08-27T14:48:19.153Z,7.38
2022-08-27T14:50:46.866Z,8.90
2022-08-27T14:53:13.616Z,7.47
2022-08-27T14:55:40.458Z,6.43
2022-08-27T14:58:07.265Z,7.13
2022-08-27T15:00:34.147Z,7.85
2022-08-27T15:03:00.885Z,7.78
2022-08-27T15:05:27.659Z,7.60
2022-08-27T15:07:56.377Z,8.68
2022-08-27T15:10:25.000Z,9.73
2022-08-27T15:12:54.198Z,7.82
2022-08-27T15:15:21.046Z,7.60
2022-08-27T15:17:47.955Z,7.50
2022-08-27T15:20:19.996Z,6.70
2022-08-27T15:22:48.159Z,7.40
2022-08-27T15:25:15.716Z,8.07
2022-08-27T15:27:42.434Z,6.88
2022-08-27T15:30:12.595Z,8.18
2022-08-27T15:32:47.610Z,8.48
2022-08-27T15:35:18.734Z,6.68
2022-08-27T15:37:46.134Z,7.00
2022-08-27T15:40:15.446Z,7.15
2022-08-27T15:42:42.402Z,7.75
2022-08-27T15:45:10.498Z,7.45
2022-08-27T15:47:37.474Z,11.60
2022-08-27T15:50:05.199Z,8.52
2022-08-27T15:52:40.426Z,11.35
2022-08-27T15:55:14.753Z,6.82
2022-08-27T15:57:41.599Z,6.78
2022-08-27T16:00:09.293Z,7.80
2022-08-27T16:02:36.241Z,7.93
2022-08-27T16:05:03.065Z,7.47
2022-08-27T16:07:29.777Z,8.13
2022-08-27T16:09:56.691Z,7.65
2022-08-27T16:12:26.862Z,8.05
2022-08-27T16:14:55.042Z,7.70
2022-08-27T16:17:22.431Z,7.28
2022-08-27T16:19:49.536Z,8.27
2022-08-27T16:22:16.416Z,7.18
2022-08-27T16:24:43.563Z,7.40
2022-08-27T16:27:10.484Z,7.50
2022-08-27T16:29:37.442Z,6.65
2022-08-27T16:32:04.495Z,7.70
2022-08-27T16:34:32.288Z,7.80
2022-08-27T16:37:00.306Z,7.50
2022-08-27T16:39:31.766Z,7.10
2022-08-27T16:41:59.994Z,6.10
2022-08-27T16:44:26.930Z,7.82
2022-08-27T16:46:53.664Z,6.60
2022-08-27T16:49:39.541Z,9.73
2022-08-27T16:52:07.430Z,6.85
2022-08-27T16:54:35.677Z,9.50
2022-08-27T16:57:02.443Z,7.57
2022-08-27T16:59:29.237Z,9.88
2022-08-27T17:01:57.227Z,8.98
2022-08-27T17:04:30.489Z,9.13
2022-08-27T17:06:59.512Z,8.07
2022-08-27T17:09:26.443Z,7.82
2022-08-27T17:11:57.085Z,6.90
2022-08-27T17:14:24.235Z,7.15
2022-08-27T17:16:54.118Z,7.32
2022-08-27T17:19:22.677Z,7.07
2022-08-27T17:21:50.870Z,6.95
2022-08-27T17:24:19.098Z,7.97
2022-08-27T17:26:45.970Z,8.20
2022-08-27T17:29:12.719Z,7.25
2022-08-27T17:31:42.341Z,9.57
2022-08-27T17:34:15.876Z,7.05
2022-08-27T17:36:43.163Z,8.00
2022-08-27T17:39:11.811Z,7.45
2022-08-27T17:41:44.467Z,6.78
2022-08-27T17:44:14.090Z,7.38
2022-08-27T17:46:41.068Z,7.75
2022-08-27T17:49:08.153Z,6.85
2022-08-27T17:51:36.153Z,8.55
2022-08-27T17:54:04.097Z,9.52
2022-08-27T17:56:31.265Z,8.48
2022-08-27T17:58:58.062Z,8.43
2022-08-27T18:01:31.718Z,9.38
2022-08-27T18:03:59.623Z,9.32
2022-08-27T18:06:28.165Z,10.57
2022-08-27T18:08:55.086Z,9.82
2022-08-27T18:11:22.007Z,9.10
2022-08-27T18:13:52.716Z,10.98
2022-08-27T18:16:19.925Z,11.35
2022-08-27T18:18:47.191Z,10.40
2022-08-27T18:21:14.054Z,10.82
2022-08-27T18:23:52.219Z,10.00
2022-08-27T18:26:20.892Z,8.73
2022-08-27T18:31:16.415Z,8.60
2022-08-27T18:33:43.294Z,8.88
2022-08-27T18:36:10.305Z,8.27
2022-08-27T18:38:37.080Z,10.25
2022-08-27T18:41:03.951Z,8.07
2022-08-27T18:43:34.618Z,8.60
2022-08-27T18:46:03.188Z,8.90
2022-08-27T18:48:30.214Z,7.65
2022-08-27T18:50:59.101Z,8.70
2022-08-27T18:53:28.896Z,10.13
2022-08-27T18:55:56.097Z,10.30
2022-08-27T18:58:23.637Z,9.48
2022-08-27T19:00:52.804Z,7.45
2022-08-27T19:03:23.366Z,7.22
2022-08-27T19:05:55.040Z,6.45
2022-08-27T19:08:23.998Z,8.07
2022-08-27T19:10:51.257Z,6.25
2022-08-27T19:13:18.450Z,7.03
2022-08-27T19:15:53.298Z,6.93
2022-08-27T19:18:20.382Z,7.13
2022-08-27T19:20:47.226Z,7.03
2022-08-27T19:23:14.075Z,7.47
2022-08-27T19:25:41.982Z,7.57
2022-08-27T19:28:08.899Z,6.57
2022-08-27T19:30:35.836Z,7.82
2022-08-27T19:33:02.710Z,8.35
2022-08-27T19:35:29.545Z,7.68
2022-08-27T19:37:56.480Z,6.45
2022-08-27T19:40:23.563Z,8.57
2022-08-27T19:42:50.859Z,9.43
2022-08-27T19:45:23.277Z,9.02
2022-08-27T19:47:52.127Z,8.10
2022-08-27T19:50:20.552Z,9.20
2022-08-27T19:52:48.405Z,8.50
2022-08-27T19:55:15.368Z,8.82
2022-08-27T19:57:44.852Z,20.27
2022-08-27T20:00:14.242Z,8.55
2022-08-27T20:02:41.043Z,8.75
2022-08-27T20:05:23.238Z,8.35
2022-08-27T20:07:52.144Z,8.88
2022-08-27T20:10:21.980Z,9.25
2022-08-27T20:12:49.673Z,8.52
2022-08-27T20:15:17.336Z,7.78
2022-08-27T20:17:45.177Z,6.93
2022-08-27T20:20:12.992Z,7.43
2022-08-27T20:22:42.885Z,8.18
2022-08-27T20:25:10.997Z,7.10
2022-08-27T20:27:38.183Z,7.65
2022-08-27T20:30:06.076Z,7.85
2022-08-27T20:32:35.740Z,9.25
2022-08-27T20:35:05.029Z,10.98
2022-08-27T20:37:32.137Z,10.18
2022-08-27T20:39:59.267Z,13.70
2022-08-27T20:42:26.135Z,13.95
2022-08-27T20:44:52.843Z,14.85
2022-08-27T20:47:20.115Z,13.85
2022-08-27T20:49:46.946Z,15.85
2022-08-27T20:52:14.953Z,11.35
2022-08-27T20:54:41.706Z,10.48
2022-08-27T20:57:09.069Z,9.93
2022-08-27T20:59:54.531Z,9.38
2022-08-27T21:02:25.935Z,9.05
2022-08-27T21:04:53.097Z,8.27
2022-08-27T21:07:21.900Z,6.50
2022-08-27T21:12:23.796Z,7.03
2022-08-27T21:14:54.920Z,7.00
2022-08-27T21:17:24.819Z,7.00
2022-08-27T21:19:51.659Z,5.72
2022-08-27T21:22:19.614Z,6.93
2022-08-27T21:24:47.704Z,6.78
2022-08-27T21:27:15.914Z,7.32
2022-08-27T21:29:44.986Z,6.57
2022-08-27T21:32:12.583Z,7.57
2022-08-27T21:34:40.252Z,7.22
2022-08-27T21:37:07.074Z,7.07
2022-08-27T21:39:34.518Z,6.97
2022-08-27T21:42:02.060Z,7.05
2022-08-27T21:44:30.364Z,7.28
2022-08-27T21:46:58.059Z,8.35
2022-08-27T21:49:25.175Z,9.60
2022-08-27T21:51:52.267Z,8.57
2022-08-27T21:54:19.591Z,8.98
2022-08-27T21:56:46.671Z,9.05
2022-08-27T21:59:13.820Z,7.72
2022-08-27T22:01:41.076Z,7.28
2022-08-27T22:04:08.496Z,8.57
2022-08-27T22:06:38.172Z,9.82
2022-08-27T22:09:05.430Z,9.63
2022-08-27T22:11:32.915Z,8.32
2022-08-27T22:14:00.270Z,8.85
2022-08-27T22:16:29.811Z,9.18
2022-08-27T22:18:57.537Z,9.55
2022-08-27T22:21:25.203Z,9.43
2022-08-27T22:23:52.602Z,9.77
2022-08-27T22:26:21.240Z,11.32
2022-08-27T22:28:48.290Z,8.80
2022-08-27T22:31:15.148Z,9.65
2022-08-27T22:33:42.377Z,9.48
2022-08-27T22:36:09.226Z,9.00
2022-08-27T22:38:36.433Z,8.77
2022-08-27T22:41:03.472Z,9.40
2022-08-27T22:43:30.948Z,8.27
2022-08-27T22:45:57.793Z,9.00
2022-08-27T22:48:24.547Z,8.48
2022-08-27T22:50:51.231Z,8.10
2022-08-27T22:53:17.952Z,7.50
2022-08-27T22:55:49.900Z,7.78
2022-08-27T22:58:18.000Z,9.18
2022-08-27T23:00:45.243Z,7.85
2022-08-27T23:03:19.125Z,9.30
2022-08-27T23:05:45.894Z,8.98
2022-08-27T23:08:13.294Z,9.82
2022-08-27T23:10:41.296Z,9.32
2022-08-27T23:13:08.365Z,8.75
2022-08-27T23:15:35.194Z,9.55
2022-08-27T23:18:01.966Z,8.75
2022-08-27T23:20:28.963Z,8.27
2022-08-27T23:22:56.274Z,8.50
2022-08-27T23:25:43.178Z,10.10
2022-08-27T23:28:14.290Z,7.85
2022-08-27T23:30:42.703Z,8.73
2022-08-27T23:33:09.873Z,9.38
2022-08-27T23:35:36.874Z,10.73
2022-08-27T23:38:04.582Z,9.32
2022-08-27T23:40:31.685Z,9.75
2022-08-27T23:42:59.025Z,8.98
2022-08-27T23:45:26.664Z,8.05
2022-08-27T23:47:53.831Z,8.25
2022-08-27T23:50:29.062Z,8.60
2022-08-27T23:53:05.474Z,8.63
2022-08-27T23:55:33.732Z,9.48
2022-08-27T23:58:01.858Z,8.60
